Time;durP1;ratioP1;P1;durP2;ratioP2;P2;SDS_P1;SDS_P2;PMS_P1;PMS_P2;Temp;Humidity;BMP_temperature;BMP_pressure;BME280_temperature;BME280_humidity;BME280_pressure;Samples;Min_cycle;Max_cycle;Signal;HPM_P1;HPM_P2
2022/09/01 00:01:41;;;;;;;3.47;0.90;;;;;;;12.55;84.07;100398.41;4214244;28;20245;-67
2022/09/01 00:04:12;;;;;;;4.73;1.00;;;;;;;12.49;84.41;100404.38;4205832;28;20493;-75
2022/09/01 00:06:39;;;;;;;5.23;0.90;;;;;;;12.39;84.66;100401.81;4202052;28;20241;-76
2022/09/01 00:09:09;;;;;;;2.03;0.90;;;;;;;12.30;85.34;100391.25;4215981;28;20686;-77
2022/09/01 00:11:36;;;;;;;4.33;0.80;;;;;;;12.21;85.58;100399.19;4204017;28;20230;-75
2022/09/01 00:14:05;;;;;;;3.30;0.80;;;;;;;12.15;85.76;100405.16;4209748;28;20255;-79
2022/09/01 00:16:47;;;;;;;5.60;1.07;;;;;;;12.11;85.95;100397.63;4218392;28;21327;-78
2022/09/01 00:19:17;;;;;;;3.10;1.00;;;;;;;11.96;87.14;100389.34;4206184;28;20248;-78
2022/09/01 00:21:44;;;;;;;2.00;0.90;;;;;;;11.87;87.67;100406.22;4209215;28;20314;-77
2022/09/01 00:24:15;;;;;;;5.07;1.07;;;;;;;11.86;88.01;100405.41;4216289;28;21739;-75
2022/09/01 00:26:42;;;;;;;4.43;0.90;;;;;;;11.82;87.79;100402.22;4218334;28;21792;-79
2022/09/01 00:29:09;;;;;;;4.23;0.90;;;;;;;11.75;87.92;100402.97;4226054;28;20296;-75
2022/09/01 00:31:35;;;;;;;2.87;1.00;;;;;;;11.67;89.09;100401.06;4226576;28;20259;-78
2022/09/01 00:34:03;;;;;;;2.70;1.23;;;;;;;11.63;89.03;100402.34;4209235;28;21159;-77
2022/09/01 00:36:29;;;;;;;3.67;1.10;;;;;;;11.66;89.08;100402.06;4232994;28;20371;-77
2022/09/01 00:38:57;;;;;;;5.57;1.00;;;;;;;11.63;89.44;100399.69;4228318;28;20239;-77
2022/09/01 00:41:27;;;;;;;2.30;0.90;;;;;;;11.49;89.92;100398.41;4213227;28;20417;-78
2022/09/01 00:43:58;;;;;;;6.20;1.17;;;;;;;11.52;90.54;100402.59;4209434;28;21255;-76
2022/09/01 00:46:28;;;;;;;3.43;0.93;;;;;;;11.51;90.36;100406.25;4205645;28;20241;-76
2022/09/01 00:49:01;;;;;;;2.90;1.17;;;;;;;11.49;91.17;100398.41;4219913;28;20239;-76
2022/09/01 00:51:28;;;;;;;2.03;1.20;;;;;;;11.49;90.71;100392.25;4211356;28;20307;-75
2022/09/01 00:53:57;;;;;;;3.70;1.50;;;;;;;11.48;90.80;100395.91;4212555;28;20236;-74
2022/09/01 00:56:24;;;;;;;2.20;1.00;;;;;;;11.48;90.79;100394.06;4211316;28;20264;-77
2022/09/01 00:58:52;;;;;;;5.50;1.27;;;;;;;11.45;90.63;100396.19;4221880;28;20239;-75
2022/09/01 01:01:19;;;;;;;2.63;1.00;;;;;;;11.35;91.57;100389.09;4220354;28;20370;-74
2022/09/01 01:03:46;;;;;;;3.70;1.00;;;;;;;11.30;91.53;100388.72;4223457;28;22165;-73
2022/09/01 01:06:15;;;;;;;4.90;1.30;;;;;;;11.33;92.00;100398.22;4212786;28;21155;-68
2022/09/01 01:08:56;;;;;;;2.93;1.00;;;;;;;11.35;92.95;100396.25;4214740;28;20675;-66
2022/09/01 01:11:26;;;;;;;3.87;1.10;;;;;;;11.44;93.72;100403.34;4216504;28;21748;-68
2022/09/01 01:13:57;;;;;;;3.07;1.10;;;;;;;11.48;92.71;100401.22;4203514;28;20259;-67
2022/09/01 01:16:26;;;;;;;2.57;1.10;;;;;;;11.44;93.17;100400.69;4219363;28;20613;-66
2022/09/01 01:18:54;;;;;;;3.40;1.10;;;;;;;11.39;92.95;100408.28;4213065;28;20295;-67
2022/09/01 01:24:19;;;;;;;2.53;1.03;;;;;;;11.30;93.18;100399.38;4214630;28;20333;-67
2022/09/01 01:26:46;;;;;;;2.73;1.40;;;;;;;11.26;92.96;100398.03;4209110;28;20349;-69
2022/09/01 01:29:13;;;;;;;5.93;1.73;;;;;;;11.26;93.08;100398.03;4216157;28;22946;-67
2022/09/01 01:31:40;;;;;;;3.87;1.30;;;;;;;11.24;93.32;100400.00;4195210;28;21877;-65
2022/09/01 01:34:08;;;;;;;4.47;1.23;;;;;;;11.22;93.45;100393.97;4205718;28;20235;-68
2022/09/01 01:36:36;;;;;;;9.97;1.30;;;;;;;11.17;93.07;100393.59;4219291;28;20650;-69
2022/09/01 01:39:16;;;;;;;4.00;1.10;;;;;;;11.14;93.66;100388.53;4216547;28;21966;-67
2022/09/01 01:41:47;;;;;;;2.73;1.00;;;;;;;11.05;94.00;100392.09;4200944;28;20260;-66
2022/09/01 01:44:16;;;;;;;6.97;0.97;;;;;;;10.87;94.55;100387.59;4205558;28;20364;-67
2022/09/01 01:46:49;;;;;;;3.83;1.40;;;;;;;10.83;95.26;100394.19;4195230;28;20251;-68
2022/09/01 01:49:19;;;;;;;2.50;1.00;;;;;;;10.79;95.01;100387.47;4206872;28;20232;-66
2022/09/01 01:51:55;;;;;;;3.43;1.00;;;;;;;10.72;95.19;100389.91;4208394;28;20235;-65
2022/09/01 01:54:24;;;;;;;5.57;1.30;;;;;;;10.62;95.71;100382.94;4192248;28;20231;-66
2022/09/01 01:56:51;;;;;;;2.77;1.00;;;;;;;10.60;96.07;100390.22;4199223;28;20229;-66
2022/09/01 01:59:18;;;;;;;3.20;1.30;;;;;;;10.53;96.05;100384.66;4215977;28;20235;-66
2022/09/01 02:01:48;;;;;;;4.53;1.40;;;;;;;10.45;96.87;100397.84;4190093;28;21628;-66
2022/09/01 02:04:15;;;;;;;2.83;1.50;;;;;;;10.34;96.99;100397.03;4185743;28;20308;-66
2022/09/01 02:06:46;;;;;;;2.87;1.20;;;;;;;10.27;97.81;100395.06;4202850;28;20258;-65
2022/09/01 02:09:15;;;;;;;2.40;1.23;;;;;;;10.26;99.00;100394.22;4208827;28;20236;-66
2022/09/01 02:11:44;;;;;;;4.07;1.50;;;;;;;10.17;98.42;100388.94;4197892;28;21692;-67
2022/09/01 02:14:12;;;;;;;6.23;1.47;;;;;;;10.14;98.70;100388.25;4192933;28;20234;-66
2022/09/01 02:16:39;;;;;;;5.03;1.47;;;;;;;10.08;99.14;100380.81;4218945;28;20421;-65
2022/09/01 02:19:08;;;;;;;3.43;1.53;;;;;;;10.00;99.64;100385.22;4203009;28;20233;-67
2022/09/01 02:21:35;;;;;;;2.27;1.30;;;;;;;9.95;100.00;100380.31;4171928;28;20232;-67
2022/09/01 02:24:04;;;;;;;4.20;1.30;;;;;;;9.94;100.00;100381.28;4217519;28;20331;-67
2022/09/01 02:26:36;;;;;;;3.10;1.00;;;;;;;10.04;100.00;100374.09;4208951;28;20257;-65
2022/09/01 02:29:08;;;;;;;4.57;1.20;;;;;;;10.07;100.00;100376.50;4206588;28;20247;-65
2022/09/01 02:31:38;;;;;;;8.97;1.60;;;;;;;10.02;100.00;100378.75;4215665;28;20487;-64
2022/09/01 02:34:09;;;;;;;7.87;1.77;;;;;;;10.00;100.00;100377.22;4206796;28;20236;-67
2022/09/01 02:36:46;;;;;;;4.40;1.40;;;;;;;10.05;100.00;100377.63;4205582;28;21502;-67
2022/09/01 02:39:17;;;;;;;2.47;1.20;;;;;;;10.10;100.00;100378.88;4204262;28;20240;-65
2022/09/01 02:41:44;;;;;;;4.77;1.20;;;;;;;10.11;100.00;100380.56;4212780;28;20255;-66
2022/09/01 02:44:11;;;;;;;2.57;1.17;;;;;;;10.06;100.00;100382.78;4222684;28;20232;-66
2022/09/01 02:46:42;;;;;;;4.70;1.20;;;;;;;10.03;100.00;100385.75;4187257;28;20237;-65
2022/09/01 02:49:19;;;;;;;5.73;1.07;;;;;;;10.13;100.00;100383.06;4198821;28;20237;-67
2022/09/01 02:51:51;;;;;;;2.53;1.30;;;;;;;10.12;100.00;100390.19;4196443;28;20229;-64
2022/09/01 02:54:17;;;;;;;4.73;1.10;;;;;;;10.19;100.00;100390.47;4212133;28;20232;-65
2022/09/01 02:56:47;;;;;;;3.80;1.17;;;;;;;10.22;100.00;100394.66;4198961;28;20676;-66
2022/09/01 02:59:14;;;;;;;6.07;1.40;;;;;;;10.17;100.00;100392.44;4215582;28;22296;-65
2022/09/01 03:01:43;;;;;;;4.77;1.50;;;;;;;10.15;100.00;100386.41;4189632;28;20281;-64
2022/09/01 03:04:10;;;;;;;5.67;1.80;;;;;;;10.14;100.00;100392.72;4218662;28;20413;-66
2022/09/01 03:06:38;;;;;;;7.00;1.63;;;;;;;10.13;99.88;100391.03;4196422;28;20534;-65
2022/09/01 03:09:07;;;;;;;6.00;1.70;;;;;;;10.07;99.50;100389.81;4214995;28;21483;-64
2022/09/01 03:11:38;;;;;;;3.97;1.60;;;;;;;9.92;98.89;100388.56;4204872;28;20228;-66
2022/09/01 03:14:06;;;;;;;5.77;1.30;;;;;;;9.87;99.35;100386.31;4190986;28;20261;-67
2022/09/01 03:16:33;;;;;;;4.97;1.33;;;;;;;9.82;99.38;100388.56;4193976;28;20311;-65
2022/09/01 03:19:02;;;;;;;4.37;1.60;;;;;;;9.82;100.00;100398.38;4194186;28;20236;-65
2022/09/01 03:21:30;;;;;;;4.83;1.53;;;;;;;9.78;100.00;100394.31;4221792;28;20237;-66
2022/09/01 03:24:00;;;;;;;5.60;1.70;;;;;;;9.83;100.00;100392.06;4218594;28;20958;-63
2022/09/01 03:26:27;;;;;;;4.10;1.70;;;;;;;9.77;100.00;100390.81;4212355;28;20354;-65
2022/09/01 03:28:54;;;;;;;2.57;1.57;;;;;;;9.73;100.00;100398.22;4211943;28;20239;-65
2022/09/01 03:31:21;;;;;;;6.40;1.80;;;;;;;9.72;100.00;100409.84;4199407;28;25181;-65
2022/09/01 03:33:47;;;;;;;4.70;1.93;;;;;;;9.69;100.00;100407.47;4210334;28;21097;-67
2022/09/01 03:36:18;;;;;;;3.23;2.07;;;;;;;9.71;100.00;100410.78;4205881;28;21443;-66
2022/09/01 03:38:48;;;;;;;5.37;2.30;;;;;;;9.55;100.00;100405.19;4209510;28;21654;-66
2022/09/01 03:41:17;;;;;;;5.97;2.30;;;;;;;9.48;100.00;100409.38;4203453;28;20296;-66
2022/09/01 03:43:45;;;;;;;4.47;2.23;;;;;;;9.39;100.00;100410.22;4206959;28;20240;-66
2022/09/01 03:46:20;;;;;;;6.33;2.10;;;;;;;9.30;100.00;100407.44;4214980;28;20298;-66
2022/09/01 03:48:57;;;;;;;8.77;1.90;;;;;;;9.34;100.00;100404.50;4213513;28;20243;-66
2022/09/01 03:51:25;;;;;;;7.97;1.90;;;;;;;9.26;100.00;100400.69;4205325;28;20236;-65
2022/09/01 03:53:56;;;;;;;5.03;1.87;;;;;;;9.17;100.00;100390.91;4212108;28;20286;-67
2022/09/01 03:56:26;;;;;;;3.93;1.60;;;;;;;9.20;100.00;100389.78;4205061;28;20227;-66
2022/09/01 03:58:57;;;;;;;3.03;1.60;;;;;;;9.24;100.00;100394.69;4208948;28;22755;-65
2022/09/01 04:01:26;;;;;;;5.27;1.80;;;;;;;9.20;100.00;100393.31;4206800;28;20280;-64
2022/09/01 04:03:52;;;;;;;5.10;1.90;;;;;;;9.14;100.00;100395.66;4192677;28;20291;-66
2022/09/01 04:06:22;;;;;;;4.03;1.60;;;;;;;9.18;100.00;100392.59;4193794;28;20228;-67
2022/09/01 04:08:54;;;;;;;7.43;2.20;;;;;;;9.20;100.00;100401.28;4215335;28;20393;-66
2022/09/01 04:11:22;;;;;;;7.00;2.20;;;;;;;9.28;100.00;100396.09;4218380;28;20367;-64
2022/09/01 04:13:50;;;;;;;4.97;1.73;;;;;;;9.13;100.00;100392.19;4212887;28;22609;-67
2022/09/01 04:19:18;;;;;;;7.93;2.40;;;;;;;9.19;100.00;100398.75;4231306;28;21791;-64
2022/09/01 04:21:49;;;;;;;2.93;1.70;;;;;;;9.15;100.00;100402.63;4214106;28;20616;-66
2022/09/01 04:24:17;;;;;;;6.77;2.27;;;;;;;9.29;100.00;100399.59;4209859;28;20304;-64
2022/09/01 04:26:47;;;;;;;3.57;1.90;;;;;;;9.18;100.00;100397.91;4221564;28;20232;-68
2022/09/01 04:29:17;;;;;;;4.00;2.03;;;;;;;9.12;100.00;100398.44;4228729;28;21687;-66
2022/09/01 04:31:47;;;;;;;7.97;2.07;;;;;;;9.11;100.00;100399.44;4220083;28;21325;-64
2022/09/01 04:34:15;;;;;;;4.03;2.30;;;;;;;9.09;100.00;100393.41;4219931;28;21021;-65
2022/09/01 04:36:43;;;;;;;4.27;2.17;;;;;;;9.23;100.00;100389.53;4217265;28;20303;-64
2022/09/01 04:39:12;;;;;;;6.73;2.40;;;;;;;9.28;100.00;100403.22;4196414;28;20250;-64
2022/09/01 04:41:44;;;;;;;5.53;2.23;;;;;;;9.30;100.00;100401.28;4220188;28;20867;-66
2022/09/01 04:44:15;;;;;;;5.93;1.93;;;;;;;9.38;100.00;100400.59;4240940;28;20244;-64
2022/09/01 04:46:45;;;;;;;3.03;1.90;;;;;;;9.38;100.00;100398.75;4219466;28;20232;-64
2022/09/01 04:49:18;;;;;;;5.53;2.27;;;;;;;9.47;100.00;100402.41;4219175;28;20294;-66
2022/09/01 04:51:49;;;;;;;5.70;2.47;;;;;;;9.61;100.00;100412.63;4212777;28;20492;-65
2022/09/01 04:54:21;;;;;;;3.63;2.03;;;;;;;9.62;100.00;100403.69;4230753;28;20715;-66
2022/09/01 04:56:49;;;;;;;4.00;2.17;;;;;;;9.63;100.00;100405.34;4186879;28;20566;-65
2022/09/01 04:59:19;;;;;;;4.23;1.90;;;;;;;9.65;100.00;100406.06;4225677;28;20716;-65
2022/09/01 05:01:49;;;;;;;5.93;2.57;;;;;;;9.81;100.00;100405.50;4216797;28;20267;-77
2022/09/01 05:04:19;;;;;;;6.33;2.00;;;;;;;9.82;100.00;100404.50;4225204;28;20228;-74
2022/09/01 05:06:48;;;;;;;5.57;1.60;;;;;;;9.89;100.00;100408.28;4195674;28;20388;-74
2022/09/01 05:09:17;;;;;;;4.37;1.93;;;;;;;9.99;100.00;100402.94;4202881;28;20423;-72
2022/09/01 05:11:47;;;;;;;7.57;1.93;;;;;;;10.06;100.00;100406.72;4207652;28;20231;-72
2022/09/01 05:14:18;;;;;;;3.63;1.70;;;;;;;10.14;100.00;100409.50;4205961;28;20229;-70
2022/09/01 05:16:45;;;;;;;3.97;2.20;;;;;;;10.11;100.00;100407.16;4183995;28;20239;-72
2022/09/01 05:19:16;;;;;;;7.43;2.63;;;;;;;10.15;100.00;100405.88;4200923;28;20239;-73
2022/09/01 05:21:45;;;;;;;3.03;1.80;;;;;;;10.29;100.00;100401.94;4185825;28;20236;-72
2022/09/01 05:24:14;;;;;;;4.87;2.10;;;;;;;10.33;99.89;100408.66;4215393;28;21467;-72
2022/09/01 05:26:42;;;;;;;5.33;1.67;;;;;;;10.46;99.57;100416.31;4216035;28;22923;-75
2022/09/01 05:29:12;;;;;;;5.20;1.77;;;;;;;10.44;99.29;100413.00;4211049;28;20228;-74
2022/09/01 05:31:40;;;;;;;5.07;1.50;;;;;;;10.65;97.99;100409.25;4213196;28;21776;-73
2022/09/01 05:34:08;;;;;;;5.30;1.70;;;;;;;10.68;98.24;100415.13;4210929;28;20247;-75
2022/09/01 05:36:38;;;;;;;8.60;1.80;;;;;;;10.78;97.21;100415.09;4207930;28;22005;-71
2022/09/01 05:39:05;;;;;;;5.70;1.40;;;;;;;10.83;97.31;100414.66;4202870;28;20232;-75
2022/09/01 05:41:34;;;;;;;3.87;1.50;;;;;;;10.90;97.24;100413.91;4221633;28;20253;-70
2022/09/01 05:44:06;;;;;;;6.20;1.37;;;;;;;10.97;96.96;100409.66;4215145;28;20239;-70
2022/09/01 05:46:35;;;;;;;9.60;2.03;;;;;;;11.15;96.45;100415.03;4203120;28;20652;-71
2022/09/01 05:49:02;;;;;;;9.53;1.50;;;;;;;11.30;95.67;100409.19;4222813;28;20267;-72
2022/09/01 05:51:33;;;;;;;3.70;1.40;;;;;;;11.41;96.00;100412.50;4217087;28;20254;-75
2022/09/01 05:54:11;;;;;;;7.20;2.03;;;;;;;11.51;94.41;100411.59;4187337;28;20418;-71
2022/09/01 05:56:39;;;;;;;4.40;1.30;;;;;;;11.71;93.68;100415.78;4213837;28;20303;-72
2022/09/01 05:59:11;;;;;;;7.23;1.30;;;;;;;11.84;91.83;100413.53;4182964;28;20510;-73
2022/09/01 06:01:54;;;;;;;5.70;1.00;;;;;;;11.97;90.26;100418.53;4186502;28;20233;-70
2022/09/01 06:04:24;;;;;;;5.47;1.07;;;;;;;12.06;90.56;100419.44;4196482;28;20248;-72
2022/09/01 06:06:52;;;;;;;5.17;1.10;;;;;;;12.16;89.15;100420.16;4210168;28;20807;-71
2022/09/01 06:09:39;;;;;;;10.30;1.63;;;;;;;12.22;88.18;100416.88;4210430;28;20497;-57
2022/09/01 06:12:08;;;;;;;3.97;0.80;;;;;;;12.35;88.02;100418.31;4216581;28;20283;-71
2022/09/01 06:14:35;;;;;;;3.00;0.90;;;;;;;12.49;87.37;100420.38;4210106;28;20910;-67
2022/09/01 06:17:02;;;;;;;7.87;1.50;;;;;;;12.58;87.64;100419.44;4211540;28;20228;-68
2022/09/01 06:19:28;;;;;;;10.83;0.97;;;;;;;12.66;86.33;100414.13;4192279;28;20244;-67
2022/09/01 06:22:02;;;;;;;6.10;1.20;;;;;;;12.71;86.01;100405.63;4205330;28;20280;-71
2022/09/01 06:24:29;;;;;;;2.60;1.23;;;;;;;12.85;85.91;100412.22;4199237;28;21216;-69
2022/09/01 06:26:58;;;;;;;4.43;1.00;;;;;;;13.12;84.83;100423.69;4213769;28;20266;-66
2022/09/01 06:29:25;;;;;;;2.23;1.00;;;;;;;13.27;82.96;100412.25;4236548;28;20324;-67
2022/09/01 06:31:51;;;;;;;5.70;0.90;;;;;;;13.35;82.04;100414.09;4215197;28;20234;-68
2022/09/01 06:34:18;;;;;;;6.17;0.97;;;;;;;13.48;80.13;100433.16;4213230;28;25581;-72
2022/09/01 06:36:47;;;;;;;2.27;0.83;;;;;;;13.47;79.34;100425.31;4213842;28;26270;-70
2022/09/01 06:39:18;;;;;;;2.77;0.80;;;;;;;13.42;78.12;100431.16;4203090;28;20240;-70
2022/09/01 06:41:51;;;;;;;4.10;0.83;;;;;;;13.51;77.20;100429.34;4209908;28;20356;-68
2022/09/01 06:44:21;;;;;;;6.23;0.90;;;;;;;13.70;76.39;100428.19;4215044;28;20235;-68
2022/09/01 06:46:52;;;;;;;1.90;0.60;;;;;;;13.90;74.71;100434.06;4219756;28;21081;-66
2022/09/01 06:49:20;;;;;;;4.07;0.90;;;;;;;14.10;74.43;100435.41;4226811;28;20236;-69
2022/09/01 06:51:48;;;;;;;4.50;0.80;;;;;;;14.67;72.65;100434.50;4202843;28;23597;-65
2022/09/01 06:54:16;;;;;;;2.30;0.70;;;;;;;17.57;63.74;100453.22;4219369;28;20563;-68
2022/09/01 06:56:46;;;;;;;3.07;0.73;;;;;;;20.85;47.03;100478.88;4226475;28;20271;-67
2022/09/01 06:59:19;;;;;;;6.30;0.80;;;;;;;22.15;41.91;100486.81;4232530;28;20236;-67
2022/09/01 07:01:47;;;;;;;1.30;0.60;;;;;;;24.22;37.24;100488.03;4243496;28;20244;-69
2022/09/01 07:04:18;;;;;;;3.97;0.70;;;;;;;26.23;32.93;100497.47;4245769;28;21886;-66
2022/09/01 07:06:49;;;;;;;1.53;0.50;;;;;;;26.59;31.46;100503.50;4207801;28;20273;-68
2022/09/01 07:09:35;;;;;;;3.40;0.60;;;;;;;27.45;29.95;100507.72;4209013;28;20228;-67
2022/09/01 07:12:18;;;;;;;4.73;0.60;;;;;;;27.79;29.46;100509.19;4208877;28;23657;-67
2022/09/01 07:14:54;;;;;;;3.17;0.50;;;;;;;28.26;28.29;100513.22;4218630;28;20307;-70
2022/09/01 07:17:41;;;;;;;2.37;0.60;;;;;;;29.12;26.47;100514.13;4214999;28;20547;-68
2022/09/01 07:20:10;;;;;;;1.40;0.50;;;;;;;28.85;27.06;100519.72;4225754;28;20662;-69
2022/09/01 07:22:59;;;;;;;3.13;0.80;;;;;;;30.52;25.34;100519.69;4238524;28;20224;-67
2022/09/01 07:25:33;;;;;;;2.47;0.50;;;;;;;30.75;23.76;100518.28;4217218;28;20276;-67
2022/09/01 07:28:22;;;;;;;2.50;0.70;;;;;;;29.98;25.19;100510.84;4217861;28;20312;-67
2022/09/01 07:30:53;;;;;;;2.00;0.40;;;;;;;29.29;25.27;100505.69;4223741;28;20237;-67
2022/09/01 07:33:23;;;;;;;2.58;0.50;;;;;;;28.40;26.61;100499.91;4235166;28;20272;-69
2022/09/01 07:36:11;;;;;;;2.43;0.60;;;;;;;28.68;25.51;100507.00;4212905;28;20495;-69
2022/09/01 07:38:54;;;;;;;3.13;0.60;;;;;;;29.61;24.74;100506.34;4211342;28;20236;-67
2022/09/01 07:41:42;;;;;;;1.27;0.50;;;;;;;29.18;25.73;100513.06;4222312;28;21804;-70
2022/09/01 07:44:28;;;;;;;1.63;0.63;;;;;;;30.11;24.32;100511.41;4238937;28;20665;-72
2022/09/01 07:46:55;;;;;;;1.63;0.52;;;;;;;31.83;22.58;100514.03;4234858;28;20237;-66
2022/09/01 07:49:42;;;;;;;3.20;1.15;;;;;;;32.79;21.01;100521.81;4239536;28;20848;-68
2022/09/01 07:52:30;;;;;;;6.57;0.80;;;;;;;31.53;22.58;100515.84;4225304;28;20241;-70
2022/09/01 07:54:57;;;;;;;3.20;0.53;;;;;;;31.50;22.08;100516.44;4221214;28;21080;-69
2022/09/01 07:57:25;;;;;;;3.80;0.57;;;;;;;29.31;25.05;100500.78;4231846;28;20238;-68
2022/09/01 07:59:54;;;;;;;3.78;0.60;;;;;;;28.87;25.55;100499.19;4196331;28;20241;-70
2022/09/01 08:02:21;;;;;;;7.43;0.98;;;;;;;30.02;24.23;100508.41;4240449;28;20229;-71
2022/09/01 08:04:48;;;;;;;2.67;0.60;;;;;;;27.76;26.77;100501.50;4224052;28;20247;-69
2022/09/01 08:07:15;;;;;;;1.13;0.47;;;;;;;27.53;26.84;100486.22;4214835;28;20231;-69
2022/09/01 08:09:41;;;;;;;3.00;0.97;;;;;;;25.65;31.10;100466.69;4220734;28;20247;-69
2022/09/01 08:12:10;;;;;;;3.67;0.60;;;;;;;26.05;29.45;100471.25;4219263;28;20892;-70
2022/09/01 08:14:37;;;;;;;2.80;0.53;;;;;;;25.46;31.08;100468.78;4260366;28;20304;-69
2022/09/01 08:17:05;;;;;;;2.00;0.50;;;;;;;23.73;32.90;100457.38;4221050;28;20361;-69
2022/09/01 08:19:52;;;;;;;2.70;0.50;;;;;;;22.63;36.55;100448.25;4205449;28;20236;-71
2022/09/01 08:22:22;;;;;;;1.43;0.60;;;;;;;22.25;37.36;100445.69;4225772;28;21072;-48
2022/09/01 08:24:52;;;;;;;1.73;0.90;;;;;;;21.99;38.20;100449.41;4228931;28;20232;-74
2022/09/01 08:27:20;;;;;;;1.30;0.50;;;;;;;20.82;39.54;100449.53;4239466;28;20295;-70
2022/09/01 08:29:47;;;;;;;1.10;0.50;;;;;;;19.88;42.81;100439.78;4212904;28;20236;-69
2022/09/01 08:32:14;;;;;;;1.73;0.57;;;;;;;19.64;44.34;100439.28;4219469;28;20380;-69
2022/09/01 08:34:42;;;;;;;3.43;0.77;;;;;;;19.37;45.36;100431.13;4213305;28;21845;-67
2022/09/01 08:37:08;;;;;;;3.83;0.60;;;;;;;18.97;47.35;100436.38;4175701;28;20240;-72
2022/09/01 08:39:35;;;;;;;1.03;0.60;;;;;;;18.28;49.33;100428.22;4209494;28;20260;-70
2022/09/01 08:42:14;;;;;;;2.57;0.70;;;;;;;18.57;49.44;100435.28;4210482;28;20233;-75
2022/09/01 08:44:49;;;;;;;0.93;0.37;;;;;;;18.20;50.25;100434.59;4230813;28;23655;-67
2022/09/01 08:47:17;;;;;;;2.87;0.80;;;;;;;18.31;49.84;100433.25;4241602;28;20241;-71
2022/09/01 08:49:58;;;;;;;3.57;0.30;;;;;;;18.96;46.34;100437.41;4224158;28;20246;-72
2022/09/01 08:52:27;;;;;;;0.90;0.40;;;;;;;19.40;45.20;100436.13;4224097;28;21019;-77
2022/09/01 08:54:59;;;;;;;1.90;0.70;;;;;;;20.13;43.99;100435.44;4196198;28;21352;-73
2022/09/01 08:57:31;;;;;;;3.70;0.70;;;;;;;20.33;43.98;100431.91;4256628;28;20448;-74
2022/09/01 08:59:59;;;;;;;5.97;0.47;;;;;;;20.37;44.02;100438.53;4208702;28;21032;-74
2022/09/01 09:02:42;;;;;;;2.20;0.93;;;;;;;20.26;43.46;100436.50;4220785;28;26108;-70
2022/09/01 09:05:15;;;;;;;2.57;0.73;;;;;;;19.61;46.28;100432.44;4178171;28;20229;-74
2022/09/01 09:08:00;;;;;;;1.63;0.67;;;;;;;19.34;46.60;100428.84;4218092;28;21897;-71
2022/09/01 09:10:52;;;;;;;1.43;0.60;;;;;;;19.50;45.05;100427.66;4225561;28;20228;-75
2022/09/01 09:13:21;;;;;;;3.50;0.60;;;;;;;19.36;45.20;100424.09;4214259;28;20238;-72
2022/09/01 09:15:55;;;;;;;2.73;0.70;;;;;;;19.44;44.32;100425.75;4194430;28;22274;-70
2022/09/01 09:18:51;;;;;;;0.97;0.50;;;;;;;19.71;43.21;100426.66;4193575;28;20250;-70
2022/09/01 09:21:29;;;;;;;1.83;0.50;;;;;;;19.72;43.14;100428.34;4189281;28;20249;-72
2022/09/01 09:24:27;;;;;;;3.60;0.60;;;;;;;19.74;43.11;100428.97;4196027;28;20302;-70
2022/09/01 09:27:05;;;;;;;2.23;0.67;;;;;;;19.26;44.58;100423.63;4216576;28;20225;-73
2022/09/01 09:29:35;;;;;;;3.03;0.40;;;;;;;19.08;45.83;100415.25;4197272;28;20233;-71
2022/09/01 09:32:07;;;;;;;0.50;0.40;;;;;;;19.04;46.21;100419.41;4199383;28;20268;-73
2022/09/01 09:34:49;;;;;;;1.17;0.50;;;;;;;19.02;46.04;100414.19;4201000;28;20244;-75
2022/09/01 09:37:22;;;;;;;2.20;0.63;;;;;;;19.05;46.28;100412.97;4211372;28;20244;-72
2022/09/01 09:40:10;;;;;;;3.60;1.00;;;;;;;19.73;45.50;100411.09;4219579;28;20240;-70
2022/09/01 09:42:42;;;;;;;2.20;0.60;;;;;;;19.59;44.39;100404.81;4221228;28;20235;-71
2022/09/01 09:45:21;;;;;;;1.33;0.47;;;;;;;19.52;45.29;100411.25;4268966;28;20241;-71
2022/09/01 09:47:48;;;;;;;1.87;0.47;;;;;;;19.61;45.06;100408.13;4203791;28;20466;-77
2022/09/01 09:50:30;;;;;;;2.87;0.40;;;;;;;19.89;44.08;100417.16;4242389;28;20231;-77
2022/09/01 09:53:25;;;;;;;1.70;0.60;;;;;;;19.60;44.70;100411.06;4293532;28;20237;-77
2022/09/01 09:56:02;;;;;;;1.60;0.50;;;;;;;19.68;45.75;100408.19;4207504;28;20235;-79
2022/09/01 09:58:41;;;;;;;0.73;0.37;;;;;;;19.43;45.61;100409.75;4226968;28;20232;-74
2022/09/01 10:01:15;;;;;;;1.73;0.70;;;;;;;19.74;45.37;100406.56;4250883;28;20235;-72
2022/09/01 10:03:56;;;;;;;1.10;0.30;;;;;;;19.65;37.99;100413.97;4213079;28;20313;-70
2022/09/01 10:06:34;;;;;;;1.17;0.30;;;;;;;19.79;39.19;100415.69;4232690;28;20237;-71
2022/09/01 10:09:04;;;;;;;2.17;0.30;;;;;;;20.11;39.21;100415.91;4238564;28;20240;-71
2022/09/01 10:11:44;;;;;;;0.47;0.30;;;;;;;20.14;39.15;100412.78;4237886;28;20427;-73
2022/09/01 10:14:16;;;;;;;1.27;0.50;;;;;;;20.22;39.76;100414.44;4207081;28;20400;-71
2022/09/01 10:17:09;;;;;;;0.63;0.30;;;;;;;19.96;41.08;100409.88;4223474;28;20372;-70
2022/09/01 10:19:39;;;;;;;1.33;0.57;;;;;;;19.48;42.23;100408.13;4235014;28;21789;-72
2022/09/01 10:22:07;;;;;;;1.87;0.50;;;;;;;19.71;41.72;100413.16;4204301;28;21783;-70
2022/09/01 10:24:35;;;;;;;2.80;0.50;;;;;;;19.82;41.00;100417.13;4189499;28;20245;-70
2022/09/01 10:27:12;;;;;;;5.47;0.40;;;;;;;19.59;41.16;100415.59;4213370;28;22341;-73
2022/09/01 10:29:49;;;;;;;3.53;0.40;;;;;;;19.67;41.49;100406.50;4228753;28;20244;-72
2022/09/01 10:32:21;;;;;;;0.97;0.40;;;;;;;19.56;41.88;100405.22;4207947;28;20233;-69
2022/09/01 10:35:04;;;;;;;1.03;0.40;;;;;;;19.60;40.78;100406.50;4225157;28;22813;-69
2022/09/01 10:37:33;;;;;;;4.30;1.80;;;;;;;19.74;39.77;100410.06;4211947;28;25058;-67
2022/09/01 10:40:18;;;;;;;3.97;0.90;;;;;;;20.27;40.33;100409.25;4206799;28;20750;-67
2022/09/01 10:42:54;;;;;;;2.07;0.57;;;;;;;19.92;40.84;100408.63;4227595;28;20651;-68
2022/09/01 10:45:38;;;;;;;0.60;0.30;;;;;;;19.92;40.32;100404.03;4221084;28;23855;-66
2022/09/01 10:48:19;;;;;;;0.47;0.30;;;;;;;20.05;39.93;100410.50;4200967;28;20286;-66
2022/09/01 10:51:14;;;;;;;0.60;0.30;;;;;;;20.01;40.06;100412.78;4218992;28;20271;-63
2022/09/01 10:53:50;;;;;;;0.80;0.50;;;;;;;20.00;37.36;100411.13;4196848;28;20247;-64
2022/09/01 10:56:39;;;;;;;0.70;0.40;;;;;;;19.86;36.74;100410.28;4208445;28;20246;-64
2022/09/01 10:59:23;;;;;;;1.67;0.47;;;;;;;19.72;36.83;100404.03;4227256;28;20228;-65
2022/09/01 11:02:17;;;;;;;1.50;0.30;;;;;;;19.52;38.26;100395.03;4201646;28;20377;-65
2022/09/01 11:05:00;;;;;;;1.60;0.60;;;;;;;20.07;38.60;100398.47;4221212;28;20276;-64
2022/09/01 11:07:32;;;;;;;1.07;0.40;;;;;;;20.13;36.40;100408.41;4227790;28;20644;-64
2022/09/01 11:10:19;;;;;;;0.60;0.30;;;;;;;19.99;37.79;100409.47;4234379;28;20296;-67
2022/09/01 11:13:21;;;;;;;4.17;0.50;;;;;;;19.80;38.37;100401.13;4212510;28;21140;-53
2022/09/01 11:15:48;;;;;;;1.03;0.30;;;;;;;19.97;38.89;100401.59;4213772;28;20233;-54
2022/09/01 11:18:24;;;;;;;4.30;0.50;;;;;;;19.99;38.08;100404.91;4251504;28;20767;-50
2022/09/01 11:20:54;;;;;;;1.27;0.40;;;;;;;19.83;40.45;100397.22;4222180;28;20359;-53
2022/09/01 11:23:26;;;;;;;2.40;0.60;;;;;;;20.23;38.66;100397.22;4225507;28;20236;-41
2022/09/01 11:25:58;;;;;;;3.50;0.60;;;;;;;20.46;39.47;100399.44;4228435;28;20236;-64
2022/09/01 11:28:45;;;;;;;1.03;0.40;;;;;;;20.43;35.25;100411.50;4218393;28;20236;-69
2022/09/01 11:31:28;;;;;;;2.83;0.40;;;;;;;20.12;35.99;100412.16;4215110;28;20235;-66
2022/09/01 11:34:09;;;;;;;2.60;0.50;;;;;;;19.82;37.15;100403.63;4222393;28;20236;-67
2022/09/01 11:36:47;;;;;;;1.50;0.60;;;;;;;20.30;37.23;100400.72;4224405;28;20251;-65
2022/09/01 11:39:28;;;;;;;2.17;0.30;;;;;;;20.17;37.30;100406.97;4241970;28;20233;-62
2022/09/01 11:42:25;;;;;;;2.87;0.40;;;;;;;19.78;38.45;100407.78;4223599;28;20807;-66
2022/09/01 11:44:58;;;;;;;1.37;0.40;;;;;;;19.79;37.98;100407.59;4220965;28;20401;-65
2022/09/01 11:47:29;;;;;;;1.43;0.33;;;;;;;19.94;37.98;100409.25;4234617;28;21076;-62
2022/09/01 11:50:02;;;;;;;1.23;0.40;;;;;;;20.17;36.33;100408.84;4258913;28;21091;-64
2022/09/01 11:52:33;;;;;;;4.63;0.40;;;;;;;20.08;37.04;100412.78;4225510;28;21843;-65
2022/09/01 11:54:59;;;;;;;1.80;0.33;;;;;;;19.76;35.93;100399.91;4226111;28;22298;-60